Time;durP1;ratioP1;P1;durP2;ratioP2;P2;SDS_P1;SDS_P2;PMS_P1;PMS_P2;Temp;Humidity;BMP_temperature;BMP_pressure;BME280_temperature;BME280_humidity;BME280_pressure;Samples;Min_cycle;Max_cycle;Signal;HPM_P1;HPM_P2
2023/01/03 00:00:30;;;;;;;24.63;22.43;;;;;;;21.45;36.60;96059.41;6157701;28;103256;-78
2023/01/03 00:03:34;;;;;;;23.03;21.03;;;;;;;21.58;36.27;96075.84;6169065;28;104161;-78
2023/01/03 00:06:40;;;;;;;24.13;21.97;;;;;;;21.58;36.28;96073.16;6159982;28;103433;-77
2023/01/03 00:09:43;;;;;;;24.30;22.00;;;;;;;21.57;36.41;96072.38;6168267;28;102871;-78
2023/01/03 00:12:48;;;;;;;23.93;21.73;;;;;;;21.57;36.63;96080.38;6169655;28;102863;-78
2023/01/03 00:15:51;;;;;;;24.07;21.93;;;;;;;21.52;36.24;96073.22;6159011;28;103988;-77
2023/01/03 00:18:55;;;;;;;23.53;21.40;;;;;;;21.44;36.51;96057.81;6169638;28;103368;-78
2023/01/03 00:21:58;;;;;;;25.30;23.00;;;;;;;21.49;36.31;96065.75;6168360;28;103456;-78
2023/01/03 00:25:03;;;;;;;25.00;22.83;;;;;;;21.57;36.45;96074.25;6156382;28;103436;-78
2023/01/03 00:28:08;;;;;;;25.80;23.57;;;;;;;21.56;36.41;96078.78;6159948;28;103571;-78
2023/01/03 00:31:12;;;;;;;25.23;22.93;;;;;;;21.56;36.16;96075.31;6161353;28;104683;-79
2023/01/03 00:34:16;;;;;;;25.80;23.60;;;;;;;21.56;36.28;96076.13;6169980;28;104834;-79
2023/01/03 00:37:19;;;;;;;23.93;21.90;;;;;;;21.56;35.87;96075.31;6167220;28;106118;-78
2023/01/03 00:40:23;;;;;;;23.83;21.70;;;;;;;21.40;36.23;96055.97;6160584;28;106366;-79
2023/01/03 00:43:30;;;;;;;23.60;21.60;;;;;;;21.38;36.34;96055.47;6154437;28;102751;-78
2023/01/03 00:46:34;;;;;;;23.80;21.77;;;;;;;21.55;36.30;96076.41;6160354;28;103378;-78
2023/01/03 00:49:37;;;;;;;25.00;22.77;;;;;;;21.55;36.17;96071.88;6161396;28;102953;-78
2023/01/03 00:52:40;;;;;;;23.57;21.47;;;;;;;21.37;35.69;96046.69;6167910;28;103962;-79
2023/01/03 00:55:44;;;;;;;23.93;21.90;;;;;;;21.30;36.20;96035.53;6168555;28;103350;-78
2023/01/03 00:58:49;;;;;;;23.47;21.27;;;;;;;21.47;35.91;96059.91;6167096;28;103166;-79
2023/01/03 01:01:54;;;;;;;22.60;20.60;;;;;;;21.54;35.77;96064.16;6159091;28;102775;-78
2023/01/03 01:04:57;;;;;;;23.97;21.87;;;;;;;21.52;35.83;96067.88;6166355;28;102986;-78
2023/01/03 01:08:00;;;;;;;24.03;22.13;;;;;;;21.36;35.86;96045.09;6166855;28;105159;-78
2023/01/03 01:11:04;;;;;;;23.83;21.73;;;;;;;21.34;36.08;96039.25;6162825;28;103090;-78
2023/01/03 01:14:19;;;;;;;23.80;21.60;;;;;;;21.39;36.18;96041.09;6134621;28;103279;-79
2023/01/03 01:17:23;;;;;;;23.50;21.33;;;;;;;21.46;35.93;96050.34;6159277;28;103443;-79
2023/01/03 01:20:26;;;;;;;22.77;20.77;;;;;;;21.52;35.59;96057.25;6167251;28;106293;-79
2023/01/03 01:23:29;;;;;;;23.13;21.13;;;;;;;21.52;35.82;96062.56;6161216;28;104699;-79
2023/01/03 01:26:33;;;;;;;22.80;20.90;;;;;;;21.53;36.00;96052.69;6164370;28;103136;-78
2023/01/03 01:29:38;;;;;;;21.77;19.87;;;;;;;21.40;35.54;96043.47;6167002;28;104081;-78
2023/01/03 01:32:41;;;;;;;21.70;19.87;;;;;;;21.51;35.96;96053.00;6166534;28;103354;-78
2023/01/03 01:35:44;;;;;;;22.77;20.77;;;;;;;20.29;35.81;95861.31;6155053;28;103419;-77
2023/01/03 01:38:52;;;;;;;23.33;21.23;;;;;;;21.52;35.59;96048.47;6165767;28;103382;-78
2023/01/03 01:45:23;;;;;;;20.50;18.70;;;;;;;21.51;35.67;96046.88;6163831;28;103385;-78
2023/01/03 01:48:27;;;;;;;21.77;19.77;;;;;;;21.52;35.17;96048.47;6146461;28;105420;-78
2023/01/03 01:51:33;;;;;;;22.10;20.10;;;;;;;21.52;35.78;96045.78;6165235;28;102901;-78
2023/01/03 01:54:36;;;;;;;21.33;19.33;;;;;;;20.53;35.34;95888.03;6163056;28;104678;-79
2023/01/03 01:57:41;;;;;;;22.37;20.37;;;;;;;21.33;35.30;96015.53;6157080;28;103280;-79
2023/01/03 02:00:45;;;;;;;21.37;19.50;;;;;;;21.50;35.55;96040.72;6163666;28;105770;-77
2023/01/03 02:03:55;;;;;;;21.43;19.63;;;;;;;21.39;35.36;96023.25;6164514;28;103315;-78
2023/01/03 02:06:59;;;;;;;21.33;19.53;;;;;;;21.44;35.49;96035.72;6164499;28;104498;-78
2023/01/03 02:10:04;;;;;;;21.80;19.80;;;;;;;21.50;35.20;96043.38;6153779;28;103134;-78
2023/01/03 02:13:17;;;;;;;22.03;20.13;;;;;;;21.50;35.09;96034.59;6162454;28;104430;-79
2023/01/03 02:16:47;;;;;;;20.43;18.63;;;;;;;21.35;35.58;96013.44;6164234;28;104424;-77
2023/01/03 02:20:13;;;;;;;21.00;19.10;;;;;;;21.48;35.67;96037.53;6159091;28;102820;-78
2023/01/03 02:23:44;;;;;;;21.27;19.47;;;;;;;21.48;35.28;96037.53;6161474;28;106357;-78
2023/01/03 02:26:57;;;;;;;20.23;18.50;;;;;;;21.30;35.11;96003.59;6146782;28;106379;-78
2023/01/03 02:30:26;;;;;;;21.37;19.47;;;;;;;21.49;35.53;96033.81;6163612;28;103211;-78
2023/01/03 02:33:36;;;;;;;21.33;19.33;;;;;;;21.31;35.31;96005.16;6144382;28;103581;-77
2023/01/03 02:36:51;;;;;;;21.10;19.20;;;;;;;21.25;35.39;95990.31;6164739;28;102993;-78
2023/01/03 02:40:00;;;;;;;20.17;18.50;;;;;;;21.42;34.96;96025.34;6163625;28;104254;-79
2023/01/03 02:43:09;;;;;;;20.97;19.27;;;;;;;21.49;35.15;96031.13;6156273;28;107076;-80
2023/01/03 02:46:23;;;;;;;21.17;19.27;;;;;;;21.30;34.87;96003.59;6158078;28;103293;-79
2023/01/03 02:49:32;;;;;;;20.80;19.00;;;;;;;21.37;34.73;96011.28;6163781;28;103056;-77
2023/01/03 02:52:38;;;;;;;20.30;18.60;;;;;;;21.49;34.65;96033.00;6162698;28;103205;-77
2023/01/03 02:55:43;;;;;;;20.47;18.67;;;;;;;21.36;34.76;96015.81;6154564;28;103082;-77
2023/01/03 02:58:51;;;;;;;20.40;18.70;;;;;;;21.34;34.68;96007.31;6163240;28;102883;-78
2023/01/03 03:01:56;;;;;;;19.70;18.00;;;;;;;21.38;34.85;96015.53;6160711;28;103779;-78
2023/01/03 03:05:04;;;;;;;20.33;18.63;;;;;;;21.37;34.55;96016.59;6164404;28;102755;-78
2023/01/03 03:08:07;;;;;;;20.80;18.90;;;;;;;21.21;34.80;95992.75;6150984;28;103904;-78
2023/01/03 03:14:37;;;;;;;20.20;18.47;;;;;;;21.29;34.88;96002.00;6154693;28;104518;-78
2023/01/03 03:17:44;;;;;;;20.37;18.67;;;;;;;21.23;34.95;95992.47;6157212;28;104737;-78
2023/01/03 03:30:57;;;;;;;19.03;17.43;;;;;;;21.45;34.76;96022.13;6158123;28;103154;-78
2023/01/03 03:34:07;;;;;;;18.73;17.00;;;;;;;21.36;34.47;96007.81;6168488;28;103091;-78
2023/01/03 03:37:16;;;;;;;18.83;17.13;;;;;;;21.44;34.82;96020.53;6168059;28;104871;-78
2023/01/03 03:47:14;;;;;;;18.30;16.70;;;;;;;21.07;34.47;95967.00;6162184;28;102712;-78
2023/01/03 03:50:26;;;;;;;18.13;16.60;;;;;;;21.45;34.61;96031.97;6168626;28;103470;-77
2023/01/03 03:53:34;;;;;;;17.90;16.40;;;;;;;21.43;34.62;96034.91;6160600;28;105296;-78
2023/01/03 03:56:40;;;;;;;18.30;16.80;;;;;;;21.43;34.69;96032.25;6168540;28;103553;-78
2023/01/03 03:59:49;;;;;;;19.00;17.47;;;;;;;21.44;34.62;96035.72;6169345;28;102819;-78
2023/01/03 04:02:55;;;;;;;17.50;15.93;;;;;;;21.42;34.40;96036.00;6164296;28;103286;-78
2023/01/03 04:06:06;;;;;;;17.20;15.80;;;;;;;21.41;34.42;96026.41;6165463;28;104037;-78
2023/01/03 04:09:10;;;;;;;17.70;16.20;;;;;;;21.21;34.20;95994.59;6167585;28;104340;-78
2023/01/03 04:12:13;;;;;;;16.83;15.43;;;;;;;21.43;34.57;96029.59;6169009;28;102898;-78
2023/01/03 04:15:17;;;;;;;18.80;17.30;;;;;;;21.24;34.51;96002.03;6148816;28;103001;-78
2023/01/03 04:18:20;;;;;;;17.43;16.03;;;;;;;21.31;34.37;96005.16;6168728;28;103307;-78
2023/01/03 04:21:26;;;;;;;18.00;16.47;;;;;;;21.42;34.53;96027.22;6167749;28;103625;-78
2023/01/03 04:24:31;;;;;;;17.50;16.00;;;;;;;21.42;34.31;96021.88;6167526;28;106074;-78
2023/01/03 04:27:34;;;;;;;16.93;15.43;;;;;;;21.22;33.92;95996.19;6160531;28;103405;-78
2023/01/03 04:30:38;;;;;;;17.13;15.73;;;;;;;21.41;34.33;96026.41;6168467;28;104284;-82
2023/01/03 04:33:42;;;;;;;16.53;15.17;;;;;;;21.04;34.21;95971.00;6168957;28;103357;-79
2023/01/03 04:36:46;;;;;;;16.87;15.40;;;;;;;21.39;34.18;96027.75;6164503;28;105407;-79
2023/01/03 04:39:50;;;;;;;18.70;17.20;;;;;;;21.36;34.82;96034.44;6165383;28;104134;-80
2023/01/03 04:46:15;;;;;;;16.50;15.20;;;;;;;21.21;34.20;96023.88;6163924;28;103284;-80
2023/01/03 04:49:18;;;;;;;17.67;16.20;;;;;;;21.38;34.60;96053.59;6158399;28;103991;-78
2023/01/03 04:52:22;;;;;;;18.40;16.73;;;;;;;21.44;34.99;96051.69;6167398;28;103920;-79
2023/01/03 04:55:26;;;;;;;19.80;18.10;;;;;;;21.42;36.37;96051.16;6168150;28;103192;-78
2023/01/03 04:58:29;;;;;;;19.80;18.10;;;;;;;21.51;37.11;96066.31;6168473;28;103027;-79
2023/01/03 05:01:33;;;;;;;19.80;17.83;;;;;;;21.38;37.14;96034.16;6158039;28;105499;-79
2023/01/03 05:04:37;;;;;;;19.97;18.17;;;;;;;21.52;37.06;96070.56;6166926;28;104662;-78
2023/01/03 05:07:41;;;;;;;19.27;17.50;;;;;;;21.56;36.48;96064.66;6166283;28;103352;-78
2023/01/03 05:10:44;;;;;;;20.93;19.00;;;;;;;21.66;36.23;96069.91;6165355;28;103167;-79
2023/01/03 05:13:47;;;;;;;19.83;18.23;;;;;;;21.69;35.92;96066.72;6159937;28;104594;-77
2023/01/03 05:16:51;;;;;;;19.90;18.00;;;;;;;21.66;36.33;96061.91;6165714;28;104152;-80
2023/01/03 05:26:40;;;;;;;20.97;19.10;;;;;;;21.66;36.47;96072.56;6165571;28;107001;-77
2023/01/03 05:29:46;;;;;;;20.70;18.70;;;;;;;21.66;36.47;96073.38;6167549;28;104126;-78
2023/01/03 05:32:49;;;;;;;22.03;19.93;;;;;;;21.68;36.03;96075.78;6167820;28;103396;-77
2023/01/03 05:35:53;;;;;;;20.90;18.87;;;;;;;21.67;36.37;96074.16;6159365;28;103400;-77
2023/01/03 05:38:58;;;;;;;20.70;18.67;;;;;;;21.62;36.06;96063.56;6167492;28;102892;-79
2023/01/03 05:42:01;;;;;;;21.73;19.73;;;;;;;21.37;36.33;96028.03;6168137;28;103160;-78
2023/01/03 05:45:05;;;;;;;21.80;19.90;;;;;;;21.59;36.30;96069.44;6162781;28;102757;-78
2023/01/03 05:48:09;;;;;;;20.50;18.70;;;;;;;21.57;36.38;96061.72;6162180;28;103125;-79
2023/01/03 05:51:13;;;;;;;20.97;19.07;;;;;;;21.57;35.86;96067.06;6166691;28;103098;-79
2023/01/03 05:54:20;;;;;;;21.53;19.50;;;;;;;21.51;36.19;96062.84;6167778;28;103046;-78
2023/01/03 05:57:23;;;;;;;21.10;19.30;;;;;;;21.58;35.82;96078.50;6158595;28;103603;-77
2023/01/03 06:00:28;;;;;;;21.47;19.70;;;;;;;21.12;36.04;96006.91;6167462;28;103246;-79
2023/01/03 06:03:31;;;;;;;20.77;18.97;;;;;;;21.16;35.77;96023.91;6167918;28;103397;-77
2023/01/03 06:06:35;;;;;;;23.03;21.03;;;;;;;21.51;35.76;96078.81;6165910;28;103266;-76
2023/01/03 06:09:42;;;;;;;21.00;19.23;;;;;;;21.49;35.59;96083.59;6157815;28;103038;-75
2023/01/03 06:12:45;;;;;;;22.17;20.23;;;;;;;21.48;35.56;96088.13;6168343;28;104231;-77
2023/01/03 06:17:53;;;;;;;21.90;19.93;;;;;;;21.48;35.37;96090.78;6167654;28;103296;-77
2023/01/03 06:19:11;;;;;;;21.83;19.93;;;;;;;21.42;35.44;96083.91;6164117;28;104684;-77
2023/01/03 06:22:15;;;;;;;22.20;20.20;;;;;;;21.48;35.11;96093.47;6163089;28;103723;-77
2023/01/03 06:25:21;;;;;;;21.93;20.03;;;;;;;21.47;34.67;96099.06;6167065;28;102712;-77
2023/01/03 06:28:25;;;;;;;21.10;19.40;;;;;;;21.48;34.93;96098.00;6167200;28;104474;-77
2023/01/03 06:31:28;;;;;;;21.60;19.80;;;;;;;21.46;34.55;96103.59;6158401;28;105205;-76
2023/01/03 06:34:31;;;;;;;23.60;21.50;;;;;;;21.42;34.36;96091.13;6167326;28;106213;-79
2023/01/03 06:37:34;;;;;;;22.70;20.80;;;;;;;21.48;34.53;96101.44;6167408;28;103429;-77
2023/01/03 06:40:39;;;;;;;22.10;20.20;;;;;;;21.48;34.75;96096.13;6167003;28;102719;-77
2023/01/03 06:43:47;;;;;;;21.97;20.17;;;;;;;21.47;34.29;96091.88;6159125;28;104438;-77
2023/01/03 06:53:34;;;;;;;22.17;20.33;;;;;;;21.46;34.02;96100.94;6140350;28;103287;-77
2023/01/03 06:56:39;;;;;;;21.60;19.80;;;;;;;21.45;34.32;96101.22;6178776;28;103357;-77
2023/01/03 06:59:42;;;;;;;21.53;19.73;;;;;;;21.45;34.24;96110.00;6163065;28;102963;-77
2023/01/03 07:02:45;;;;;;;22.47;20.43;;;;;;;21.45;34.14;96111.88;6162726;28;103115;-77
2023/01/03 07:05:49;;;;;;;21.07;19.27;;;;;;;21.43;34.01;96119.34;6154450;28;106388;-77
2023/01/03 07:08:52;;;;;;;23.73;21.73;;;;;;;21.44;34.46;96113.72;6162040;28;105004;-77
2023/01/03 07:11:56;;;;;;;22.43;20.33;;;;;;;21.25;34.31;96091.47;6161580;28;103080;-76
2023/01/03 07:14:58;;;;;;;21.20;19.40;;;;;;;21.37;34.30;96107.13;6163343;28;103630;-77
2023/01/03 07:18:02;;;;;;;23.50;21.50;;;;;;;21.65;34.14;96121.59;6154337;28;103629;-77
2023/01/03 07:21:06;;;;;;;22.37;20.50;;;;;;;21.66;33.90;96125.84;6162143;28;104577;-76
2023/01/03 07:24:13;;;;;;;22.70;20.73;;;;;;;21.68;33.71;96132.50;6161839;28;103117;-78
2023/01/03 07:27:17;;;;;;;22.60;20.70;;;;;;;21.74;33.83;96138.59;6158320;28;104119;-77
2023/01/03 07:30:20;;;;;;;23.43;21.37;;;;;;;21.64;33.76;96131.44;6156744;28;103303;-77
2023/01/03 07:33:23;;;;;;;21.97;20.17;;;;;;;21.65;33.72;96142.91;6161970;28;103395;-75
2023/01/03 07:36:27;;;;;;;22.53;20.60;;;;;;;21.49;33.57;96115.56;6162084;28;103277;-76
2023/01/03 07:39:30;;;;;;;21.20;19.30;;;;;;;21.61;33.57;96128.56;6152916;28;102962;-76
2023/01/03 07:45:55;;;;;;;22.20;20.30;;;;;;;21.77;33.25;96128.19;6158844;28;103315;-76
2023/01/03 07:49:01;;;;;;;20.63;18.90;;;;;;;21.85;33.37;96132.16;6162276;28;105195;-77
2023/01/03 07:52:12;;;;;;;21.40;19.57;;;;;;;21.75;33.13;96113.53;6153587;28;104039;-76
2023/01/03 07:55:16;;;;;;;22.53;20.53;;;;;;;21.95;33.06;96129.41;6161524;28;103350;-76
2023/01/03 07:58:20;;;;;;;23.30;21.13;;;;;;;21.87;32.79;96111.38;6161631;28;104464;-76
2023/01/03 08:01:25;;;;;;;20.70;18.90;;;;;;;22.06;32.96;96133.59;6156972;28;103774;-76
2023/01/03 08:04:28;;;;;;;21.47;19.53;;;;;;;22.03;32.71;96123.50;6157150;28;102856;-78
2023/01/03 08:07:32;;;;;;;21.33;19.50;;;;;;;22.13;33.04;96130.63;6165078;28;105408;-78
2023/01/03 08:14:00;;;;;;;21.90;20.00;;;;;;;22.04;32.97;96110.97;6156317;28;103312;-77
2023/01/03 08:17:03;;;;;;;21.70;19.83;;;;;;;22.15;33.40;96128.47;6165419;28;103469;-76
2023/01/03 08:20:08;;;;;;;20.80;19.10;;;;;;;22.22;32.84;96138.81;6164679;28;102711;-76
2023/01/03 08:23:11;;;;;;;20.23;18.43;;;;;;;22.10;33.33;96117.84;6165483;28;103636;-77
2023/01/03 08:26:16;;;;;;;21.50;19.70;;;;;;;22.08;33.02;96117.34;6156253;28;102983;-77
2023/01/03 08:29:20;;;;;;;20.57;18.83;;;;;;;22.23;32.76;96140.41;6165146;28;103269;-77
2023/01/03 08:32:24;;;;;;;20.77;19.07;;;;;;;22.24;33.16;96134.00;6165420;28;103351;-76
2023/01/03 08:35:31;;;;;;;20.07;18.37;;;;;;;22.10;33.22;96113.31;6161628;28;103681;-77
2023/01/03 08:38:41;;;;;;;20.90;19.10;;;;;;;21.81;33.09;96072.47;6160180;28;103315;-77
2023/01/03 08:41:49;;;;;;;20.90;19.17;;;;;;;22.08;33.31;96114.66;6164688;28;103454;-77
2023/01/03 08:44:58;;;;;;;20.80;19.10;;;;;;;21.86;33.04;96085.00;6165265;28;103488;-78
2023/01/03 08:48:02;;;;;;;22.13;20.13;;;;;;;22.23;33.41;96137.75;6155436;28;104861;-77
2023/01/03 08:51:06;;;;;;;21.30;19.30;;;;;;;22.18;33.35;96127.09;6165737;28;103881;-77
2023/01/03 08:54:09;;;;;;;20.10;18.30;;;;;;;22.20;33.05;96133.78;6165377;28;103229;-77
2023/01/03 08:57:12;;;;;;;20.93;19.23;;;;;;;22.09;33.15;96118.91;6164959;28;103118;-77
2023/01/03 09:00:17;;;;;;;19.20;17.53;;;;;;;22.05;33.53;96107.22;6155554;28;102845;-77
2023/01/03 09:03:20;;;;;;;21.00;19.30;;;;;;;22.09;33.33;96117.06;6164998;28;105030;-76
2023/01/03 09:06:24;;;;;;;20.67;18.97;;;;;;;22.03;33.19;96104.84;6164695;28;103056;-77
2023/01/03 09:09:27;;;;;;;20.93;19.13;;;;;;;22.19;33.32;96126.06;6160480;28;104065;-77
2023/01/03 09:12:30;;;;;;;20.60;18.70;;;;;;;22.18;33.21;96124.44;6158906;28;103192;-76
2023/01/03 09:15:35;;;;;;;21.47;19.67;;;;;;;22.07;33.53;96100.53;6163339;28;103480;-77
2023/01/03 09:18:41;;;;;;;20.90;19.07;;;;;;;22.20;33.35;96117.78;6163274;28;104165;-77
2023/01/03 09:21:44;;;;;;;20.40;18.63;;;;;;;22.19;33.70;96120.72;6154523;28;104091;-77
2023/01/03 09:24:47;;;;;;;19.97;18.17;;;;;;;22.21;33.34;96107.91;6167618;28;103304;-76
2023/01/03 09:27:50;;;;;;;20.80;19.00;;;;;;;22.20;33.63;96101.78;6163057;28;103564;-76
2023/01/03 09:30:55;;;;;;;19.67;17.97;;;;;;;22.19;33.46;96094.84;6164546;28;103332;-76
2023/01/03 09:33:58;;;;;;;20.23;18.53;;;;;;;22.10;33.29;96070.66;6153600;28;103298;-78
2023/01/03 09:37:03;;;;;;;19.57;17.97;;;;;;;22.15;33.64;96067.13;6163514;28;103434;-77
2023/01/03 09:40:07;;;;;;;20.40;18.60;;;;;;;22.23;33.22;96071.88;6163776;28;105366;-77
2023/01/03 09:43:15;;;;;;;19.73;18.13;;;;;;;22.09;33.31;96050.41;6164407;28;103128;-77
2023/01/03 09:46:31;;;;;;;19.30;17.60;;;;;;;22.35;33.41;96074.19;6159424;28;103861;-77
2023/01/03 09:49:39;;;;;;;19.23;17.63;;;;;;;22.37;33.41;96077.34;6163440;28;103158;-77
2023/01/03 10:03:43;;;;;;;17.90;16.40;;;;;;;22.02;33.01;95985.97;6163856;28;106054;-77
2023/01/03 10:07:06;;;;;;;17.67;16.27;;;;;;;22.40;33.41;96042.13;6155877;28;103880;-77
2023/01/03 10:10:17;;;;;;;17.87;16.17;;;;;;;22.48;33.48;96040.69;6163351;28;102996;-77
2023/01/03 10:13:32;;;;;;;18.07;16.50;;;;;;;22.50;33.33;96033.19;6163778;28;103616;-76
2023/01/03 10:16:46;;;;;;;18.30;16.80;;;;;;;22.51;33.23;96026.78;6163862;28;103277;-77
2023/01/03 10:20:08;;;;;;;17.80;16.40;;;;;;;22.49;33.47;96023.59;6155549;28;106195;-76
2023/01/03 10:23:13;;;;;;;18.57;16.97;;;;;;;22.46;33.20;96014.31;6163670;28;103642;-77
2023/01/03 10:26:16;;;;;;;18.17;16.57;;;;;;;22.30;33.48;95988.88;6163690;28;103432;-77
2023/01/03 10:29:19;;;;;;;17.40;16.00;;;;;;;22.46;33.03;96018.84;6158910;28;103338;-77
2023/01/03 10:32:42;;;;;;;17.97;16.50;;;;;;;22.34;33.70;95992.56;6160538;28;104455;-77
2023/01/03 10:35:47;;;;;;;17.87;16.37;;;;;;;22.43;33.17;96004.22;6164022;28;105998;-77
2023/01/03 10:39:04;;;;;;;17.27;15.77;;;;;;;22.26;33.51;95967.31;6162978;28;104344;-76
2023/01/03 10:42:07;;;;;;;17.60;16.10;;;;;;;22.38;33.82;95985.59;6154772;28;104841;-77
2023/01/03 10:45:15;;;;;;;17.93;16.43;;;;;;;22.29;33.67;95968.63;6162919;28;103399;-77
2023/01/03 10:48:19;;;;;;;16.97;15.47;;;;;;;22.40;33.74;95984.25;6163433;28;107241;-77
2023/01/03 10:51:30;;;;;;;17.33;15.90;;;;;;;22.42;33.50;95979.41;6163649;28;102815;-78
2023/01/03 10:54:50;;;;;;;18.60;17.00;;;;;;;22.25;33.63;95948.94;6157639;28;103156;-77
2023/01/03 10:58:01;;;;;;;17.73;16.23;;;;;;;22.32;33.38;95952.06;6162655;28;103185;-78
2023/01/03 11:01:19;;;;;;;17.93;16.43;;;;;;;22.42;33.64;95960.75;6163629;28;103264;-77
2023/01/03 11:04:23;;;;;;;17.83;16.33;;;;;;;22.44;33.92;95960.44;6154980;28;104987;-77
2023/01/03 11:07:27;;;;;;;18.53;17.03;;;;;;;22.43;33.39;95961.53;6162879;28;102866;-77
2023/01/03 11:10:37;;;;;;;17.87;16.37;;;;;;;22.41;33.63;95950.34;6161864;28;103428;-76
2023/01/03 11:13:42;;;;;;;16.83;15.50;;;;;;;22.30;33.91;95930.22;6162343;28;103058;-77
2023/01/03 11:16:45;;;;;;;16.97;15.57;;;;;;;22.29;33.70;95928.63;6153026;28;105818;-77
2023/01/03 11:19:49;;;;;;;16.70;15.20;;;;;;;22.41;33.55;95937.81;6163110;28;102956;-78
2023/01/03 11:23:00;;;;;;;16.23;14.97;;;;;;;22.41;33.99;95939.69;6162550;28;103055;-77
2023/01/03 11:26:14;;;;;;;16.33;15.00;;;;;;;22.24;33.55;95910.81;6157876;28;103334;-76
2023/01/03 11:29:47;;;;;;;16.57;15.17;;;;;;;22.37;33.91;95922.69;6161099;28;104496;-77
2023/01/03 11:33:18;;;;;;;15.87;14.57;;;;;;;22.26;33.98;95895.34;6157582;28;104048;-77
2023/01/03 11:36:40;;;;;;;17.00;15.50;;;;;;;22.31;34.13;95899.81;6162656;28;103431;-77
2023/01/03 11:40:02;;;;;;;17.00;15.60;;;;;;;22.29;34.17;95889.44;6152702;28;103785;-77
2023/01/03 11:43:22;;;;;;;15.20;13.97;;;;;;;22.15;34.04;95869.88;6166825;28;106267;-77
2023/01/03 11:46:44;;;;;;;16.87;15.47;;;;;;;22.32;34.11;95888.06;6166534;28;103460;-76
2023/01/03 11:49:59;;;;;;;16.07;14.77;;;;;;;22.30;34.21;95887.56;6159433;28;105553;-77
2023/01/03 11:53:10;;;;;;;16.50;15.20;;;;;;;22.33;34.12;95884.31;6166802;28;103463;-76
2023/01/03 11:56:26;;;;;;;15.97;14.57;;;;;;;22.05;33.77;95838.81;6166954;28;103287;-76
2023/01/03 11:59:55;;;;;;;15.80;14.50;;;;;;;22.27;34.44;95874.78;6166803;28;106995;-77
2023/01/03 12:03:09;;;;;;;15.63;14.23;;;;;;;22.27;34.10;95866.81;6161260;28;103623;-76
2023/01/03 12:06:21;;;;;;;15.33;14.03;;;;;;;22.24;34.39;95865.50;6165980;28;103062;-76
2023/01/03 12:09:37;;;;;;;14.77;13.57;;;;;;;22.04;34.31;95828.44;6165786;28;103260;-77
2023/01/03 12:13:03;;;;;;;14.77;13.67;;;;;;;22.23;34.39;95861.25;6157419;28;103074;-77
2023/01/03 12:16:12;;;;;;;15.70;14.37;;;;;;;22.29;34.02;95868.09;6165593;28;103299;-77
2023/01/03 12:19:29;;;;;;;16.90;15.50;;;;;;;22.29;34.18;95864.63;6166727;28;104331;-78
2023/01/03 12:22:37;;;;;;;15.20;14.00;;;;;;;22.29;33.98;95867.31;6162514;28;106332;-77
2023/01/03 12:25:47;;;;;;;14.37;13.27;;;;;;;22.26;34.71;95865.22;6159960;28;103078;-77
2023/01/03 12:29:00;;;;;;;14.93;13.80;;;;;;;22.19;34.15;95854.13;6166478;28;105710;-77
2023/01/03 12:32:08;;;;;;;15.20;13.90;;;;;;;22.05;34.49;95830.81;6165374;28;103076;-77
2023/01/03 12:35:21;;;;;;;15.43;14.13;;;;;;;22.03;34.56;95832.19;6157090;28;104695;-77
2023/01/03 12:38:29;;;;;;;15.47;14.07;;;;;;;22.12;34.24;95849.13;6165506;28;107268;-77
2023/01/03 12:41:38;;;;;;;14.07;12.97;;;;;;;22.05;34.58;95844.16;6166418;28;103234;-77
2023/01/03 12:44:46;;;;;;;15.10;13.80;;;;;;;22.17;34.22;95861.59;6165482;28;103313;-77
2023/01/03 12:47:54;;;;;;;15.83;14.53;;;;;;;22.02;34.73;95838.59;6156072;28;104160;-77
2023/01/03 12:50:57;;;;;;;14.03;12.93;;;;;;;22.11;34.74;95848.34;6165097;28;102785;-76
2023/01/03 12:54:14;;;;;;;14.73;13.50;;;;;;;21.81;34.73;95814.03;6165410;28;105449;-77
2023/01/03 12:57:44;;;;;;;14.03;12.80;;;;;;;22.06;34.99;95851.06;6156748;28;106439;-78
2023/01/03 13:00:58;;;;;;;14.80;13.60;;;;;;;22.05;34.77;95854.81;6164967;28;103250;-78
2023/01/03 13:04:11;;;;;;;16.00;14.70;;;;;;;22.03;34.85;95843.66;6165247;28;103147;-77
2023/01/03 13:07:23;;;;;;;14.50;13.20;;;;;;;21.83;34.72;95822.53;6164715;28;104951;-77
2023/01/03 13:10:31;;;;;;;15.27;14.00;;;;;;;21.98;35.16;95851.69;6157515;28;103602;-78
2023/01/03 13:13:35;;;;;;;15.00;13.70;;;;;;;21.81;34.95;95832.66;6165818;28;104616;-78
2023/01/03 13:16:45;;;;;;;13.63;12.53;;;;;;;21.96;34.90;95851.19;6165251;28;105458;-78
2023/01/03 13:19:57;;;;;;;16.13;14.73;;;;;;;21.87;35.05;95846.78;6159689;28;106356;-79
2023/01/03 13:23:03;;;;;;;14.17;13.07;;;;;;;21.96;35.10;95850.38;6164846;28;103486;-78
2023/01/03 13:26:24;;;;;;;14.00;12.90;;;;;;;21.84;34.81;95840.13;6165919;28;102887;-77
2023/01/03 13:29:44;;;;;;;14.27;13.17;;;;;;;21.95;35.19;95848.78;6165522;28;106151;-78
2023/01/03 13:32:52;;;;;;;14.27;13.23;;;;;;;21.92;35.02;95857.38;6155680;28;107515;-78
2023/01/03 13:35:59;;;;;;;14.43;13.33;;;;;;;21.90;35.08;95848.88;6164824;28;102956;-77
2023/01/03 13:39:36;;;;;;;13.70;12.60;;;;;;;21.90;35.02;95843.53;6164708;28;102773;-78
2023/01/03 13:42:40;;;;;;;13.87;12.70;;;;;;;21.81;34.78;95833.47;6156569;28;104109;-78
2023/01/03 13:46:05;;;;;;;14.97;13.70;;;;;;;21.88;34.78;95843.81;6163965;28;105854;-78
2023/01/03 13:49:18;;;;;;;13.93;12.80;;;;;;;21.89;34.83;95845.41;6164843;28;107144;-77
2023/01/03 13:52:55;;;;;;;14.20;13.00;;;;;;;21.87;35.31;95838.78;6165312;28;106913;-76
2023/01/03 13:56:00;;;;;;;13.83;12.60;;;;;;;21.87;35.06;95839.56;6155505;28;102914;-76
2023/01/03 13:59:16;;;;;;;14.37;13.13;;;;;;;21.65;34.76;95791.28;6164193;28;103352;-77
2023/01/03 14:02:49;;;;;;;14.80;13.60;;;;;;;21.86;34.78;95834.53;6164489;28;103083;-78
2023/01/03 14:06:26;;;;;;;13.60;12.40;;;;;;;21.85;35.20;95839.06;6152695;28;106961;-78
2023/01/03 14:09:48;;;;;;;14.20;13.00;;;;;;;21.86;35.33;95839.88;6164401;28;103426;-77
2023/01/03 14:13:14;;;;;;;15.20;13.90;;;;;;;21.84;34.85;95837.44;6164647;28;103291;-77
2023/01/03 14:16:23;;;;;;;13.03;12.00;;;;;;;21.73;35.25;95822.66;6160492;28;104602;-77
2023/01/03 14:19:31;;;;;;;14.17;12.97;;;;;;;21.83;35.17;95840.41;6159330;28;103207;-77
2023/01/03 14:22:38;;;;;;;14.53;13.33;;;;;;;21.76;35.56;95822.88;6164024;28;103093;-77
2023/01/03 14:25:45;;;;;;;14.20;13.10;;;;;;;21.82;34.97;95839.63;6163903;28;104173;-77
2023/01/03 14:28:50;;;;;;;13.93;12.83;;;;;;;21.83;35.15;95848.41;6156028;28;105269;-77
2023/01/03 14:31:56;;;;;;;13.47;12.37;;;;;;;21.84;35.21;95848.13;6163990;28;104101;-77
2023/01/03 14:34:59;;;;;;;14.00;12.90;;;;;;;21.83;35.06;95856.41;6164300;28;107446;-77
2023/01/03 14:38:03;;;;;;;14.17;13.07;;;;;;;21.83;35.24;95854.53;6163852;28;103202;-77
2023/01/03 14:41:25;;;;;;;14.40;13.20;;;;;;;21.74;34.72;95843.69;6156815;28;103507;-78
2023/01/03 14:44:29;;;;;;;13.53;12.50;;;;;;;21.81;35.24;95857.44;6163231;28;103591;-77
2023/01/03 14:47:36;;;;;;;13.50;12.40;;;;;;;21.82;35.30;95850.28;6163826;28;104057;-77
2023/01/03 14:50:43;;;;;;;13.73;12.53;;;;;;;21.66;35.21;95832.84;6156750;28;103951;-78
2023/01/03 14:53:46;;;;;;;14.27;13.07;;;;;;;21.48;35.36;95807.72;6162660;28;102965;-77
2023/01/03 14:56:51;;;;;;;13.30;12.30;;;;;;;21.74;35.14;95841.00;6163374;28;103035;-76
2023/01/03 14:59:56;;;;;;;13.90;12.70;;;;;;;21.71;35.30;95835.47;6162913;28;106325;-76
2023/01/03 15:03:01;;;;;;;13.87;12.77;;;;;;;21.79;35.44;95856.94;6153872;28;103612;-78
2023/01/03 15:06:19;;;;;;;14.50;13.23;;;;;;;21.79;35.57;95856.94;6163500;28;103151;-77
2023/01/03 15:09:24;;;;;;;14.10;12.97;;;;;;;21.80;35.06;95847.06;6163205;28;102767;-77
2023/01/03 15:12:31;;;;;;;14.20;13.00;;;;;;;21.52;35.11;95809.56;6162775;28;103220;-77